createdAt,value
2022-10-21T00:02:17.472Z,3.18
2022-10-21T00:04:45.174Z,3.09
2022-10-21T00:07:12.810Z,3.06
2022-10-21T00:09:40.483Z,3.04
2022-10-21T00:12:08.084Z,3.01
2022-10-21T00:14:35.732Z,3.00
2022-10-21T00:17:03.410Z,2.98
2022-10-21T00:19:31.035Z,2.96
2022-10-21T00:21:58.664Z,2.96
2022-10-21T00:24:26.367Z,2.97
2022-10-21T00:26:56.369Z,2.98
2022-10-21T00:29:24.081Z,3.00
2022-10-21T00:31:55.082Z,3.00
2022-10-21T00:34:25.861Z,3.01
2022-10-21T00:36:56.366Z,3.02
2022-10-21T00:39:24.055Z,3.01
2022-10-21T00:41:51.687Z,2.98
2022-10-21T00:44:19.368Z,2.96
2022-10-21T00:46:52.286Z,2.95
2022-10-21T00:49:41.110Z,2.92
2022-10-21T00:52:12.084Z,2.91
2022-10-21T00:54:41.009Z,2.90
2022-10-21T00:57:08.962Z,2.90
2022-10-21T00:59:40.827Z,2.93
2022-10-21T01:02:08.803Z,2.93
2022-10-21T01:04:36.644Z,2.93
2022-10-21T01:07:04.377Z,2.95
2022-10-21T01:09:32.752Z,2.94
2022-10-21T01:12:02.197Z,2.88
2022-10-21T01:14:55.353Z,2.89
2022-10-21T01:17:44.846Z,2.84
2022-10-21T01:20:22.594Z,2.80
2022-10-21T01:23:08.768Z,2.76
2022-10-21T01:25:45.444Z,2.74
2022-10-21T01:28:16.144Z,2.72
2022-10-21T01:30:47.804Z,2.69
2022-10-21T01:33:27.569Z,2.68
2022-10-21T01:35:55.186Z,2.64
2022-10-21T01:38:29.046Z,2.62
2022-10-21T01:41:04.294Z,2.62
2022-10-21T01:43:44.191Z,2.63
2022-10-21T01:46:29.712Z,2.65
2022-10-21T01:49:01.774Z,2.71
2022-10-21T01:51:30.296Z,2.73
2022-10-21T01:54:02.725Z,2.81
2022-10-21T01:56:31.553Z,2.87
2022-10-21T01:59:00.552Z,2.92
2022-10-21T02:01:28.720Z,2.92
2022-10-21T02:03:58.984Z,3.00
2022-10-21T02:06:26.748Z,3.04
2022-10-21T02:08:54.546Z,3.09
2022-10-21T02:11:22.890Z,3.17
2022-10-21T02:14:02.845Z,3.18
2022-10-21T02:16:32.978Z,3.19
2022-10-21T02:19:01.578Z,3.25
2022-10-21T02:21:32.109Z,3.34
2022-10-21T02:24:20.002Z,3.37
2022-10-21T02:26:47.740Z,3.43
2022-10-21T02:29:20.690Z,3.46
2022-10-21T02:32:01.276Z,3.45
2022-10-21T02:34:47.897Z,3.43
2022-10-21T02:37:27.224Z,3.40
2022-10-21T02:40:02.117Z,3.38
2022-10-21T02:42:32.884Z,3.40
2022-10-21T02:45:01.430Z,3.45
2022-10-21T02:47:29.752Z,3.49
2022-10-21T02:49:57.537Z,3.50
2022-10-21T02:52:25.264Z,3.52
2022-10-21T02:54:52.960Z,3.60
2022-10-21T02:57:20.602Z,3.64
2022-10-21T02:59:48.205Z,3.68
2022-10-21T03:02:15.820Z,3.71
2022-10-21T03:04:43.836Z,3.71
2022-10-21T03:07:11.506Z,3.72
2022-10-21T03:09:39.201Z,3.75
2022-10-21T03:12:06.870Z,3.79
2022-10-21T03:14:34.595Z,3.81
2022-10-21T03:17:02.298Z,3.85
2022-10-21T03:19:29.921Z,3.87
2022-10-21T03:21:57.578Z,3.87
2022-10-21T03:24:28.757Z,3.90
2022-10-21T03:26:56.827Z,3.94
2022-10-21T03:29:24.590Z,3.90
2022-10-21T03:31:52.233Z,3.86
2022-10-21T03:34:20.190Z,3.86
2022-10-21T03:36:48.193Z,3.84
2022-10-21T03:39:15.948Z,3.82
2022-10-21T03:41:43.783Z,3.79
2022-10-21T03:44:11.569Z,3.79
2022-10-21T03:46:39.593Z,3.78
2022-10-21T03:49:11.989Z,3.78
2022-10-21T03:51:43.410Z,3.78
2022-10-21T03:54:11.180Z,3.79
2022-10-21T03:56:39.086Z,3.81
2022-10-21T03:59:06.721Z,3.81
2022-10-21T04:01:34.436Z,3.82
2022-10-21T04:04:02.209Z,3.85
2022-10-21T04:06:29.885Z,3.89
2022-10-21T04:08:57.778Z,3.92
2022-10-21T04:11:25.581Z,3.96
2022-10-21T04:13:53.349Z,3.99
2022-10-21T04:16:21.982Z,4.01
2022-10-21T04:18:49.660Z,4.03
2022-10-21T04:21:17.359Z,4.06
2022-10-21T04:23:45.114Z,4.08
2022-10-21T04:26:12.791Z,4.11
2022-10-21T04:28:40.414Z,4.15
2022-10-21T04:31:08.095Z,4.19
2022-10-21T04:33:35.781Z,4.23
2022-10-21T04:36:03.588Z,4.29
2022-10-21T04:38:31.682Z,4.37
2022-10-21T04:41:00.902Z,4.44
2022-10-21T04:43:29.097Z,4.47
2022-10-21T04:45:56.782Z,4.49
2022-10-21T04:48:24.518Z,4.52
2022-10-21T04:50:53.105Z,4.52
2022-10-21T04:53:21.804Z,4.53
2022-10-21T04:55:53.385Z,4.54
2022-10-21T04:58:22.387Z,4.55
2022-10-21T05:00:51.311Z,4.57
2022-10-21T05:03:19.773Z,4.56
2022-10-21T05:05:50.981Z,4.55
2022-10-21T05:08:19.533Z,4.55
2022-10-21T05:10:47.222Z,4.55
2022-10-21T05:13:15.857Z,4.58
2022-10-21T05:15:43.545Z,4.61
2022-10-21T05:18:11.260Z,4.65
2022-10-21T05:20:38.885Z,4.70
2022-10-21T05:23:07.868Z,4.76
2022-10-21T05:25:35.600Z,4.80
2022-10-21T05:28:03.352Z,4.88
2022-10-21T05:30:31.068Z,4.92
2022-10-21T05:32:58.821Z,4.97
2022-10-21T05:35:26.465Z,5.01
2022-10-21T05:37:54.145Z,5.05
2022-10-21T05:40:22.121Z,5.08
2022-10-21T05:42:49.852Z,5.10
2022-10-21T05:45:17.507Z,5.13
2022-10-21T05:47:45.173Z,5.16
2022-10-21T05:50:13.113Z,5.17
2022-10-21T05:52:41.297Z,5.19
2022-10-21T05:55:09.959Z,5.22
2022-10-21T05:57:38.481Z,5.22
2022-10-21T06:00:06.523Z,5.25
2022-10-21T06:02:34.151Z,5.27
2022-10-21T06:05:01.911Z,5.29
2022-10-21T06:07:29.933Z,5.35
2022-10-21T06:09:57.601Z,5.40
2022-10-21T06:12:25.427Z,5.45
2022-10-21T06:14:53.223Z,5.52
2022-10-21T06:17:21.376Z,5.50
2022-10-21T06:19:51.022Z,5.49
2022-10-21T06:22:18.965Z,5.49
2022-10-21T06:24:47.270Z,5.48
2022-10-21T06:27:15.109Z,5.45
2022-10-21T06:29:42.757Z,5.42
2022-10-21T06:32:10.487Z,5.42
2022-10-21T06:34:38.542Z,5.45
2022-10-21T06:37:06.179Z,5.48
2022-10-21T06:39:33.841Z,5.52
2022-10-21T06:42:01.792Z,5.58
2022-10-21T06:44:42.133Z,5.63
2022-10-21T06:47:09.759Z,5.66
2022-10-21T06:49:37.530Z,5.70
2022-10-21T06:52:05.245Z,5.77
2022-10-21T06:54:32.964Z,5.88
2022-10-21T06:57:00.690Z,6.01
2022-10-21T06:59:28.367Z,6.10
2022-10-21T07:02:00.166Z,6.15
2022-10-21T07:04:29.102Z,6.20
2022-10-21T07:06:56.820Z,6.31
2022-10-21T07:09:24.568Z,6.42
2022-10-21T07:11:52.457Z,6.48
2022-10-21T07:14:20.191Z,6.53
2022-10-21T07:16:48.348Z,6.61
2022-10-21T07:19:15.987Z,6.66
2022-10-21T07:21:44.675Z,6.72
2022-10-21T07:24:12.930Z,6.79
2022-10-21T07:26:40.633Z,6.85
2022-10-21T07:29:08.293Z,6.89
2022-10-21T07:31:37.098Z,6.93
2022-10-21T07:36:39.934Z,7.02
2022-10-21T07:39:09.474Z,7.10
2022-10-21T07:41:41.920Z,7.21
2022-10-21T07:44:10.079Z,7.31
2022-10-21T07:46:39.037Z,7.38
2022-10-21T07:49:07.602Z,7.47
2022-10-21T07:51:35.277Z,7.52
2022-10-21T07:54:04.225Z,7.60
2022-10-21T07:56:33.910Z,7.65
2022-10-21T07:59:02.366Z,7.69
2022-10-21T08:01:30.896Z,7.75
2022-10-21T08:03:58.737Z,7.85
2022-10-21T08:06:26.984Z,7.98
2022-10-21T08:08:57.503Z,8.08
2022-10-21T08:11:26.569Z,8.18
2022-10-21T08:13:54.539Z,8.24
2022-10-21T08:16:22.266Z,8.29
2022-10-21T08:18:50.513Z,8.38
2022-10-21T08:21:18.157Z,8.42
2022-10-21T08:23:46.474Z,8.50
2022-10-21T08:26:15.440Z,8.62
2022-10-21T08:28:43.344Z,8.69
2022-10-21T08:31:15.907Z,8.77
2022-10-21T08:33:44.680Z,8.93
2022-10-21T08:36:13.932Z,9.06
2022-10-21T08:38:41.969Z,9.20
2022-10-21T08:41:28.699Z,9.26
2022-10-21T08:44:00.414Z,9.32
2022-10-21T08:46:35.554Z,9.36
2022-10-21T08:49:07.456Z,9.43
2022-10-21T08:51:38.121Z,9.50
2022-10-21T08:54:06.885Z,9.62
2022-10-21T08:56:34.538Z,9.78
2022-10-21T08:59:02.434Z,9.87
2022-10-21T09:01:59.954Z,9.95
2022-10-21T09:04:41.308Z,10.14
2022-10-21T09:07:16.023Z,10.32
2022-10-21T09:10:03.941Z,10.46
2022-10-21T09:12:53.634Z,10.50
2022-10-21T09:15:31.741Z,10.63
2022-10-21T09:18:14.908Z,10.80
2022-10-21T09:20:45.797Z,11.02
2022-10-21T09:23:25.848Z,11.21
2022-10-21T09:25:59.841Z,11.41
2022-10-21T09:28:29.013Z,11.57
2022-10-21T09:31:00.249Z,11.66
2022-10-21T09:33:36.998Z,11.70
2022-10-21T09:36:25.058Z,11.75
2022-10-21T09:38:58.239Z,11.86
2022-10-21T09:41:42.878Z,11.92
2022-10-21T09:44:16.614Z,12.06
2022-10-21T09:46:48.203Z,12.19
2022-10-21T09:49:54.758Z,12.31
2022-10-21T09:52:15.129Z,12.40
2022-10-21T09:54:43.242Z,12.54
2022-10-21T09:57:17.013Z,12.65
2022-10-21T09:59:51.925Z,12.74
2022-10-21T10:02:24.523Z,12.81
2022-10-21T10:04:52.331Z,12.88
2022-10-21T10:07:26.498Z,13.03
2022-10-21T10:09:54.340Z,13.14
2022-10-21T10:12:23.886Z,13.28
2022-10-21T10:14:51.616Z,13.46
2022-10-21T10:17:25.742Z,13.54
2022-10-21T10:20:05.857Z,13.63
2022-10-21T10:22:38.181Z,13.63
2022-10-21T10:25:17.021Z,13.60
2022-10-21T10:27:47.571Z,13.65
2022-10-21T10:30:15.690Z,13.69
2022-10-21T10:32:44.158Z,13.69
2022-10-21T10:35:38.175Z,13.71
2022-10-21T10:38:06.617Z,13.77
2022-10-21T10:40:42.006Z,13.83
2022-10-21T10:43:23.441Z,13.89
2022-10-21T10:45:53.809Z,13.94
2022-10-21T10:48:24.312Z,14.01
2022-10-21T10:50:52.219Z,14.03
2022-10-21T10:53:33.584Z,14.11
2022-10-21T10:56:08.210Z,14.15
2022-10-21T10:58:38.508Z,14.19
2022-10-21T11:01:10.849Z,14.22
2022-10-21T11:03:42.669Z,14.29
2022-10-21T11:06:17.831Z,14.37
2022-10-21T11:08:48.154Z,14.42
2022-10-21T11:11:22.646Z,14.45
2022-10-21T11:13:50.404Z,14.44
2022-10-21T11:16:59.682Z,14.44
2022-10-21T11:19:47.321Z,14.32
2022-10-21T11:22:38.797Z,14.40
2022-10-21T11:25:14.439Z,14.59
2022-10-21T11:27:54.153Z,14.72
2022-10-21T11:30:23.631Z,14.78
2022-10-21T11:32:54.094Z,14.79
2022-10-21T11:35:38.196Z,14.83
2022-10-21T11:38:17.930Z,14.94
2022-10-21T11:40:45.562Z,15.11
2022-10-21T11:43:22.527Z,15.19
2022-10-21T11:45:56.485Z,15.22
2022-10-21T11:48:42.870Z,15.17
2022-10-21T11:51:22.998Z,15.11
2022-10-21T11:54:09.594Z,15.02
2022-10-21T11:56:58.907Z,14.95
2022-10-21T11:59:26.609Z,14.95
2022-10-21T12:02:00.746Z,14.95
2022-10-21T12:04:34.719Z,14.95
2022-10-21T12:07:12.298Z,14.96
2022-10-21T12:09:45.981Z,14.87
2022-10-21T12:12:16.791Z,14.80
2022-10-21T12:14:55.756Z,14.72
2022-10-21T12:17:24.587Z,14.74
2022-10-21T12:19:57.965Z,14.78
2022-10-21T12:22:26.809Z,14.83
2022-10-21T12:25:12.712Z,14.87
2022-10-21T12:27:45.633Z,14.86
2022-10-21T12:30:22.154Z,14.84
2022-10-21T12:32:55.666Z,14.86
2022-10-21T12:35:45.604Z,14.89
2022-10-21T12:38:42.930Z,14.92
2022-10-21T12:41:29.660Z,14.94
2022-10-21T12:44:00.899Z,14.94
2022-10-21T12:46:30.468Z,14.97
2022-10-21T12:49:01.312Z,15.05
2022-10-21T12:51:34.699Z,15.10
2022-10-21T12:54:02.302Z,15.14
2022-10-21T12:56:50.225Z,15.18
2022-10-21T12:59:30.233Z,15.17
2022-10-21T13:02:08.066Z,15.15
2022-10-21T13:04:36.138Z,15.16
2022-10-21T13:07:15.954Z,15.22
2022-10-21T13:10:06.168Z,15.24
2022-10-21T13:12:33.896Z,15.31
2022-10-21T13:15:05.633Z,15.40
2022-10-21T13:17:49.230Z,15.41
2022-10-21T13:20:19.893Z,15.45
2022-10-21T13:22:49.585Z,15.52
2022-10-21T13:25:20.383Z,15.62
2022-10-21T13:27:51.684Z,15.73
2022-10-21T13:30:26.752Z,15.78
2022-10-21T13:33:02.248Z,15.86
2022-10-21T13:35:36.814Z,15.90
2022-10-21T13:38:24.912Z,15.91
2022-10-21T13:41:03.058Z,15.90
2022-10-21T13:43:39.563Z,15.82
2022-10-21T13:46:07.357Z,15.77
2022-10-21T13:48:42.830Z,15.69
2022-10-21T13:51:16.768Z,15.59
2022-10-21T13:53:46.121Z,15.54
2022-10-21T13:56:21.926Z,15.45
2022-10-21T13:58:49.600Z,15.36
2022-10-21T14:01:20.313Z,15.31
2022-10-21T14:06:30.739Z,15.12
2022-10-21T14:09:04.376Z,15.04
2022-10-21T14:11:42.130Z,14.90
2022-10-21T14:14:11.175Z,14.83
2022-10-21T14:16:40.527Z,14.80
2022-10-21T14:19:09.921Z,14.74
2022-10-21T14:21:38.658Z,14.67
2022-10-21T14:24:06.555Z,14.59
2022-10-21T14:26:34.306Z,14.49
2022-10-21T14:29:02.563Z,14.39
2022-10-21T14:31:30.385Z,14.32
2022-10-21T14:33:58.212Z,14.21
2022-10-21T14:36:27.909Z,14.09
2022-10-21T14:38:55.563Z,14.02
2022-10-21T14:41:25.746Z,13.94
2022-10-21T14:43:54.720Z,13.89
2022-10-21T14:46:22.491Z,13.78
2022-10-21T14:48:53.794Z,13.73
2022-10-21T14:51:22.900Z,13.66
2022-10-21T14:53:58.773Z,13.59
2022-10-21T14:56:33.158Z,13.50
2022-10-21T14:59:03.360Z,13.40
2022-10-21T15:01:31.040Z,13.33
2022-10-21T15:04:00.005Z,13.23
2022-10-21T15:06:29.491Z,13.13
2022-10-21T15:08:57.727Z,13.06
2022-10-21T15:11:25.623Z,12.97
2022-10-21T15:14:04.810Z,12.88
2022-10-21T15:19:06.968Z,12.74
2022-10-21T15:21:46.456Z,12.66
2022-10-21T15:24:17.894Z,12.59
2022-10-21T15:26:47.198Z,12.55
2022-10-21T15:29:23.020Z,12.51
2022-10-21T15:31:53.265Z,12.47
2022-10-21T15:34:21.074Z,12.42
2022-10-21T15:36:48.689Z,12.37
2022-10-21T15:39:16.318Z,12.34
2022-10-21T15:41:44.406Z,12.38
2022-10-21T15:44:18.160Z,12.41
2022-10-21T15:46:46.917Z,12.37
2022-10-21T15:49:19.792Z,12.33
2022-10-21T15:51:48.206Z,12.23
2022-10-21T15:54:17.142Z,12.17
2022-10-21T15:56:46.470Z,12.12
2022-10-21T15:59:24.844Z,12.10
2022-10-21T16:01:53.167Z,12.08
2022-10-21T16:04:20.963Z,12.03
2022-10-21T16:06:49.733Z,11.91
2022-10-21T16:09:20.510Z,11.81
2022-10-21T16:11:58.967Z,11.75
2022-10-21T16:14:30.042Z,11.74
2022-10-21T16:16:59.287Z,11.76
2022-10-21T16:19:28.574Z,11.77
2022-10-21T16:21:56.647Z,11.77
2022-10-21T16:24:24.442Z,11.79
2022-10-21T16:26:52.163Z,11.78
2022-10-21T16:29:23.793Z,11.76
2022-10-21T16:31:51.839Z,11.78
2022-10-21T16:34:19.630Z,11.73
2022-10-21T16:36:47.584Z,11.68
2022-10-21T16:39:17.607Z,11.67
2022-10-21T16:41:45.840Z,11.70
2022-10-21T16:44:14.034Z,11.74
2022-10-21T16:46:43.981Z,11.74
2022-10-21T16:49:13.216Z,11.73
2022-10-21T16:51:42.124Z,11.72
2022-10-21T16:54:10.618Z,11.66
2022-10-21T16:56:38.502Z,11.60
2022-10-21T16:59:07.215Z,11.51
2022-10-21T17:01:34.948Z,11.44
2022-10-21T17:04:02.914Z,11.41
2022-10-21T17:06:30.738Z,11.35
2022-10-21T17:08:58.504Z,11.28
2022-10-21T17:11:29.594Z,11.24
2022-10-21T17:13:57.278Z,11.21
2022-10-21T17:16:24.903Z,11.19
2022-10-21T17:18:52.526Z,11.17
2022-10-21T17:21:25.053Z,11.15
2022-10-21T17:23:53.149Z,11.19
2022-10-21T17:26:21.028Z,11.23
2022-10-21T17:28:49.230Z,11.23
2022-10-21T17:31:18.865Z,11.31
2022-10-21T17:33:47.290Z,11.41
2022-10-21T17:36:15.345Z,11.41
2022-10-21T17:38:43.269Z,11.38
2022-10-21T17:41:12.004Z,11.43
2022-10-21T17:43:39.700Z,11.49
2022-10-21T17:46:07.421Z,11.56
2022-10-21T17:48:35.057Z,11.56
2022-10-21T17:51:02.765Z,11.52
2022-10-21T17:53:31.007Z,11.52
2022-10-21T17:55:59.632Z,11.57
2022-10-21T17:58:27.926Z,11.58
2022-10-21T18:00:58.851Z,11.53
2022-10-21T18:03:27.755Z,11.42
2022-10-21T18:05:56.307Z,11.36
2022-10-21T18:08:24.150Z,11.33
2022-10-21T18:10:55.811Z,11.27
2022-10-21T18:13:24.325Z,11.21
2022-10-21T18:15:52.427Z,11.17
2022-10-21T18:18:21.619Z,11.14
2022-10-21T18:20:49.367Z,11.14
2022-10-21T18:23:17.639Z,11.16
2022-10-21T18:25:45.311Z,11.18
2022-10-21T18:28:13.010Z,11.21
2022-10-21T18:30:42.484Z,11.26
2022-10-21T18:33:10.589Z,11.27
2022-10-21T18:35:38.282Z,11.31
2022-10-21T18:38:05.989Z,11.37
2022-10-21T18:40:33.672Z,11.38
2022-10-21T18:43:01.380Z,11.38
2022-10-21T18:45:29.089Z,11.41
2022-10-21T18:47:56.831Z,11.44
2022-10-21T18:50:24.811Z,11.46
2022-10-21T18:52:52.532Z,11.49
2022-10-21T18:55:20.191Z,11.49
2022-10-21T18:57:48.003Z,11.50
2022-10-21T19:00:15.783Z,11.49
2022-10-21T19:02:43.560Z,11.51
2022-10-21T19:05:11.259Z,11.55
2022-10-21T19:07:39.238Z,11.53
2022-10-21T19:10:07.455Z,11.54
2022-10-21T19:12:35.149Z,11.51
2022-10-21T19:15:02.881Z,11.54
2022-10-21T19:17:30.654Z,11.56
2022-10-21T19:20:00.823Z,11.60
2022-10-21T19:25:01.420Z,11.61
2022-10-21T19:27:29.108Z,11.58
2022-10-21T19:29:56.786Z,11.55
2022-10-21T19:32:24.512Z,11.56
2022-10-21T19:34:52.244Z,11.51
2022-10-21T19:37:19.929Z,11.43
2022-10-21T19:39:47.581Z,11.39
2022-10-21T19:42:15.376Z,11.41
2022-10-21T19:44:43.066Z,11.42
2022-10-21T19:47:10.830Z,11.44
2022-10-21T19:49:38.724Z,11.42
2022-10-21T19:52:06.543Z,11.41
2022-10-21T19:54:34.305Z,11.37
2022-10-21T19:57:02.185Z,11.37
2022-10-21T19:59:30.069Z,11.41
2022-10-21T20:01:57.989Z,11.39
2022-10-21T20:04:25.826Z,11.34
2022-10-21T20:06:53.559Z,11.32
2022-10-21T20:09:21.660Z,11.36
2022-10-21T20:11:49.557Z,11.37
2022-10-21T20:14:17.386Z,11.39
2022-10-21T20:16:48.292Z,11.44
2022-10-21T20:19:15.965Z,11.46
2022-10-21T20:21:43.746Z,11.47
2022-10-21T20:24:13.880Z,11.46
2022-10-21T20:26:49.213Z,11.45
2022-10-21T20:29:18.738Z,11.40
2022-10-21T20:31:46.511Z,11.36
2022-10-21T20:34:14.239Z,11.38
2022-10-21T20:36:42.031Z,11.38
2022-10-21T20:39:10.611Z,11.38
2022-10-21T20:41:38.753Z,11.34
2022-10-21T20:44:08.583Z,11.32
2022-10-21T20:46:36.445Z,11.31
2022-10-21T20:49:05.505Z,11.31
2022-10-21T20:51:34.258Z,11.28
2022-10-21T20:54:03.635Z,11.24
2022-10-21T20:56:36.438Z,11.20
2022-10-21T20:59:05.317Z,11.22
2022-10-21T21:01:34.498Z,11.23
2022-10-21T21:04:08.414Z,11.23
2022-10-21T21:06:40.414Z,11.25
2022-10-21T21:09:33.610Z,11.24
2022-10-21T21:11:55.844Z,11.19
2022-10-21T21:14:23.514Z,11.16
2022-10-21T21:16:51.191Z,11.16
2022-10-21T21:19:20.834Z,11.16
2022-10-21T21:21:48.517Z,11.16
2022-10-21T21:24:16.150Z,11.16
2022-10-21T21:26:44.085Z,11.16
2022-10-21T21:29:12.283Z,11.16
2022-10-21T21:31:40.457Z,11.18
2022-10-21T21:34:08.963Z,11.18
2022-10-21T21:36:37.008Z,11.19
2022-10-21T21:39:06.259Z,11.16
2022-10-21T21:41:34.926Z,11.16
2022-10-21T21:44:04.109Z,11.16
2022-10-21T21:46:32.096Z,11.17
2022-10-21T21:49:05.179Z,11.17
2022-10-21T21:51:35.287Z,11.16
2022-10-21T21:54:04.138Z,11.15
2022-10-21T21:56:32.011Z,11.16
2022-10-21T21:58:59.745Z,11.16
2022-10-21T22:01:29.264Z,11.17
2022-10-21T22:03:57.734Z,11.21
2022-10-21T22:08:59.623Z,11.27
2022-10-21T22:11:29.506Z,11.27
2022-10-21T22:13:57.972Z,11.27
2022-10-21T22:16:30.272Z,11.29
2022-10-21T22:19:00.312Z,11.31
2022-10-21T22:21:29.049Z,11.32
2022-10-21T22:23:56.876Z,11.33
2022-10-21T22:26:26.975Z,11.36
2022-10-21T22:28:55.014Z,11.39
2022-10-21T22:31:28.908Z,11.41
2022-10-21T22:34:00.786Z,11.41
2022-10-21T22:36:28.672Z,11.38
2022-10-21T22:38:56.999Z,11.36
2022-10-21T22:41:25.162Z,11.39
2022-10-21T22:43:52.821Z,11.37
2022-10-21T22:46:32.907Z,11.38
2022-10-21T22:49:02.926Z,11.39
2022-10-21T22:51:31.179Z,11.41
2022-10-21T22:53:58.912Z,11.42
2022-10-21T22:56:27.896Z,11.46
2022-10-21T22:58:57.280Z,11.48
2022-10-21T23:01:29.061Z,11.51
2022-10-21T23:03:58.080Z,11.50
2022-10-21T23:06:25.887Z,11.44
2022-10-21T23:08:53.532Z,11.42
2022-10-21T23:11:21.206Z,11.45
2022-10-21T23:14:02.101Z,11.46
2022-10-21T23:16:31.578Z,11.47
2022-10-21T23:18:59.763Z,11.50
2022-10-21T23:21:27.995Z,11.52
2022-10-21T23:23:55.894Z,11.51
2022-10-21T23:26:23.587Z,11.50
2022-10-21T23:28:51.229Z,11.50
2022-10-21T23:31:19.817Z,11.49
2022-10-21T23:33:47.424Z,11.52
2022-10-21T23:36:15.061Z,11.51
2022-10-21T23:38:42.668Z,11.50
2022-10-21T23:41:10.337Z,11.51
2022-10-21T23:43:38.314Z,11.50
2022-10-21T23:46:06.950Z,11.45
2022-10-21T23:48:34.592Z,11.40
2022-10-21T23:51:02.273Z,11.38
2022-10-21T23:53:30.002Z,11.36
2022-10-21T23:55:57.871Z,11.31
2022-10-21T23:58:25.528Z,11.32
